sensor_id;sensor_type;location;lat;lon;timestamp;temperature;humidity
18337;DHT22;9294;51.106;7.028;2023-11-19T00:02:19;19.90;96.90
18337;DHT22;9294;51.106;7.028;2023-11-19T00:04:47;19.90;96.80
18337;DHT22;9294;51.106;7.028;2023-11-19T00:07:15;19.90;96.90
18337;DHT22;9294;51.106;7.028;2023-11-19T00:09:42;19.90;96.80
18337;DHT22;9294;51.106;7.028;2023-11-19T00:12:09;19.90;96.80
18337;DHT22;9294;51.106;7.028;2023-11-19T00:14:35;19.90;96.80
18337;DHT22;9294;51.106;7.028;2023-11-19T00:17:02;19.90;96.80
18337;DHT22;9294;51.106;7.028;2023-11-19T00:19:30;19.90;96.80
18337;DHT22;9294;51.106;7.028;2023-11-19T00:21:56;19.90;96.80
18337;DHT22;9294;51.106;7.028;2023-11-19T00:24:29;19.90;96.80
18337;DHT22;9294;51.106;7.028;2023-11-19T00:26:56;19.90;96.80
18337;DHT22;9294;51.106;7.028;2023-11-19T00:29:22;19.90;96.80
18337;DHT22;9294;51.106;7.028;2023-11-19T00:31:50;19.90;97.00
18337;DHT22;9294;51.106;7.028;2023-11-19T00:34:16;19.90;96.90
18337;DHT22;9294;51.106;7.028;2023-11-19T00:36:47;19.90;96.80
18337;DHT22;9294;51.106;7.028;2023-11-19T00:39:13;19.90;96.80
18337;DHT22;9294;51.106;7.028;2023-11-19T00:41:42;19.90;96.90
18337;DHT22;9294;51.106;7.028;2023-11-19T00:44:09;19.80;96.80
18337;DHT22;9294;51.106;7.028;2023-11-19T00:46:36;19.90;96.90
18337;DHT22;9294;51.106;7.028;2023-11-19T00:49:02;19.90;96.90
18337;DHT22;9294;51.106;7.028;2023-11-19T00:51:29;19.80;96.80
18337;DHT22;9294;51.106;7.028;2023-11-19T00:53:57;19.80;96.80
18337;DHT22;9294;51.106;7.028;2023-11-19T00:56:24;19.80;96.80
18337;DHT22;9294;51.106;7.028;2023-11-19T00:58:52;19.80;96.80
18337;DHT22;9294;51.106;7.028;2023-11-19T01:01:19;19.80;96.80
18337;DHT22;9294;51.106;7.028;2023-11-19T01:03:46;19.80;96.80
18337;DHT22;9294;51.106;7.028;2023-11-19T01:06:12;19.80;96.80
18337;DHT22;9294;51.106;7.028;2023-11-19T01:08:42;19.80;96.80
18337;DHT22;9294;51.106;7.028;2023-11-19T01:11:18;19.80;96.80
18337;DHT22;9294;51.106;7.028;2023-11-19T01:13:46;19.80;96.80
18337;DHT22;9294;51.106;7.028;2023-11-19T01:16:14;19.80;96.70
18337;DHT22;9294;51.106;7.028;2023-11-19T01:18:41;19.80;96.80
18337;DHT22;9294;51.106;7.028;2023-11-19T01:21:08;19.80;96.80
18337;DHT22;9294;51.106;7.028;2023-11-19T01:23:35;19.80;96.80
18337;DHT22;9294;51.106;7.028;2023-11-19T01:26:02;19.80;96.70
18337;DHT22;9294;51.106;7.028;2023-11-19T01:28:30;19.70;96.60
18337;DHT22;9294;51.106;7.028;2023-11-19T01:30:57;19.70;96.60
18337;DHT22;9294;51.106;7.028;2023-11-19T01:33:25;19.70;96.60
18337;DHT22;9294;51.106;7.028;2023-11-19T01:35:53;19.70;96.60
18337;DHT22;9294;51.106;7.028;2023-11-19T01:38:20;19.70;96.60
18337;DHT22;9294;51.106;7.028;2023-11-19T01:40:46;19.80;96.70
18337;DHT22;9294;51.106;7.028;2023-11-19T01:43:31;19.70;96.60
18337;DHT22;9294;51.106;7.028;2023-11-19T01:45:58;19.70;96.50
18337;DHT22;9294;51.106;7.028;2023-11-19T01:48:26;19.70;96.60
18337;DHT22;9294;51.106;7.028;2023-11-19T01:50:54;19.70;96.70
18337;DHT22;9294;51.106;7.028;2023-11-19T01:53:21;19.70;96.70
18337;DHT22;9294;51.106;7.028;2023-11-19T01:55:48;19.70;96.60
18337;DHT22;9294;51.106;7.028;2023-11-19T01:58:15;19.70;96.60
18337;DHT22;9294;51.106;7.028;2023-11-19T02:00:44;19.70;96.60
18337;DHT22;9294;51.106;7.028;2023-11-19T02:03:11;19.70;96.60
18337;DHT22;9294;51.106;7.028;2023-11-19T02:05:40;19.70;96.60
18337;DHT22;9294;51.106;7.028;2023-11-19T02:08:07;19.60;96.60
18337;DHT22;9294;51.106;7.028;2023-11-19T02:10:34;19.70;96.60
18337;DHT22;9294;51.106;7.028;2023-11-19T02:13:01;19.60;96.60
18337;DHT22;9294;51.106;7.028;2023-11-19T02:15:29;19.60;96.60
18337;DHT22;9294;51.106;7.028;2023-11-19T02:17:55;19.70;96.60
18337;DHT22;9294;51.106;7.028;2023-11-19T02:20:22;19.60;96.60
18337;DHT22;9294;51.106;7.028;2023-11-19T02:22:51;19.60;96.50
18337;DHT22;9294;51.106;7.028;2023-11-19T02:25:22;19.70;96.60
18337;DHT22;9294;51.106;7.028;2023-11-19T02:27:56;19.60;96.60
18337;DHT22;9294;51.106;7.028;2023-11-19T02:30:25;19.60;96.60
18337;DHT22;9294;51.106;7.028;2023-11-19T02:32:54;19.60;96.60
18337;DHT22;9294;51.106;7.028;2023-11-19T02:35:22;19.60;96.50
18337;DHT22;9294;51.106;7.028;2023-11-19T02:37:49;19.60;96.60
18337;DHT22;9294;51.106;7.028;2023-11-19T02:40:16;19.60;96.50
18337;DHT22;9294;51.106;7.028;2023-11-19T02:42:43;19.60;96.60
18337;DHT22;9294;51.106;7.028;2023-11-19T02:45:11;19.60;96.50
18337;DHT22;9294;51.106;7.028;2023-11-19T02:47:40;19.60;96.50
18337;DHT22;9294;51.106;7.028;2023-11-19T02:50:08;19.60;96.50
18337;DHT22;9294;51.106;7.028;2023-11-19T02:52:39;19.60;96.50
18337;DHT22;9294;51.106;7.028;2023-11-19T02:55:06;19.60;96.50
18337;DHT22;9294;51.106;7.028;2023-11-19T02:57:35;19.60;96.50
18337;DHT22;9294;51.106;7.028;2023-11-19T03:00:02;19.60;96.50
18337;DHT22;9294;51.106;7.028;2023-11-19T03:02:39;19.60;96.40
18337;DHT22;9294;51.106;7.028;2023-11-19T03:05:10;19.60;96.40
18337;DHT22;9294;51.106;7.028;2023-11-19T03:07:37;19.60;96.40
18337;DHT22;9294;51.106;7.028;2023-11-19T03:10:04;19.60;96.40
18337;DHT22;9294;51.106;7.028;2023-11-19T03:12:32;19.60;96.40
18337;DHT22;9294;51.106;7.028;2023-11-19T03:14:58;19.60;96.50
18337;DHT22;9294;51.106;7.028;2023-11-19T03:17:25;19.60;96.50
18337;DHT22;9294;51.106;7.028;2023-11-19T03:19:53;19.60;96.40
18337;DHT22;9294;51.106;7.028;2023-11-19T03:22:20;19.60;96.50
18337;DHT22;9294;51.106;7.028;2023-11-19T03:24:47;19.60;96.50
18337;DHT22;9294;51.106;7.028;2023-11-19T03:27:13;19.60;96.50
18337;DHT22;9294;51.106;7.028;2023-11-19T03:29:40;19.60;96.50
18337;DHT22;9294;51.106;7.028;2023-11-19T03:32:07;19.60;96.50
18337;DHT22;9294;51.106;7.028;2023-11-19T03:34:33;19.60;96.50
18337;DHT22;9294;51.106;7.028;2023-11-19T03:37:01;19.50;96.50
18337;DHT22;9294;51.106;7.028;2023-11-19T03:39:29;19.50;96.50
18337;DHT22;9294;51.106;7.028;2023-11-19T03:41:55;19.60;96.60
18337;DHT22;9294;51.106;7.028;2023-11-19T03:44:22;19.50;96.50
18337;DHT22;9294;51.106;7.028;2023-11-19T03:46:52;19.50;96.50
18337;DHT22;9294;51.106;7.028;2023-11-19T03:49:18;19.50;96.60
18337;DHT22;9294;51.106;7.028;2023-11-19T03:51:45;19.50;96.60
18337;DHT22;9294;51.106;7.028;2023-11-19T03:54:13;19.50;96.60
18337;DHT22;9294;51.106;7.028;2023-11-19T03:56:40;19.50;96.70
18337;DHT22;9294;51.106;7.028;2023-11-19T03:59:07;19.50;96.70
18337;DHT22;9294;51.106;7.028;2023-11-19T04:01:35;19.50;96.70
18337;DHT22;9294;51.106;7.028;2023-11-19T04:04:03;19.50;96.70
18337;DHT22;9294;51.106;7.028;2023-11-19T04:06:29;19.50;96.70
18337;DHT22;9294;51.106;7.028;2023-11-19T04:08:57;19.40;96.70
18337;DHT22;9294;51.106;7.028;2023-11-19T04:11:25;19.40;96.70
18337;DHT22;9294;51.106;7.028;2023-11-19T04:13:51;19.40;96.80
18337;DHT22;9294;51.106;7.028;2023-11-19T04:16:18;19.40;96.80
18337;DHT22;9294;51.106;7.028;2023-11-19T04:18:45;19.50;96.90
18337;DHT22;9294;51.106;7.028;2023-11-19T04:21:11;19.40;96.90
18337;DHT22;9294;51.106;7.028;2023-11-19T04:23:38;19.40;96.80
18337;DHT22;9294;51.106;7.028;2023-11-19T04:26:05;19.40;96.90
18337;DHT22;9294;51.106;7.028;2023-11-19T04:28:33;19.40;96.90
18337;DHT22;9294;51.106;7.028;2023-11-19T04:31:00;19.40;96.90
18337;DHT22;9294;51.106;7.028;2023-11-19T04:33:28;19.40;97.00
18337;DHT22;9294;51.106;7.028;2023-11-19T04:35:55;19.40;96.90
18337;DHT22;9294;51.106;7.028;2023-11-19T04:38:22;19.40;96.90
18337;DHT22;9294;51.106;7.028;2023-11-19T04:40:49;19.40;97.00
18337;DHT22;9294;51.106;7.028;2023-11-19T04:43:15;19.40;97.00
18337;DHT22;9294;51.106;7.028;2023-11-19T04:45:43;19.40;97.00
18337;DHT22;9294;51.106;7.028;2023-11-19T04:48:10;19.40;97.00
18337;DHT22;9294;51.106;7.028;2023-11-19T04:50:38;19.40;97.10
18337;DHT22;9294;51.106;7.028;2023-11-19T04:53:04;19.40;97.10
18337;DHT22;9294;51.106;7.028;2023-11-19T04:55:31;19.40;97.10
18337;DHT22;9294;51.106;7.028;2023-11-19T04:57:58;19.40;97.10
18337;DHT22;9294;51.106;7.028;2023-11-19T05:00:24;19.30;97.10
18337;DHT22;9294;51.106;7.028;2023-11-19T05:02:52;19.40;97.20
18337;DHT22;9294;51.106;7.028;2023-11-19T05:05:19;19.40;97.20
18337;DHT22;9294;51.106;7.028;2023-11-19T05:07:46;19.30;97.20
18337;DHT22;9294;51.106;7.028;2023-11-19T05:10:13;19.30;97.20
18337;DHT22;9294;51.106;7.028;2023-11-19T05:12:39;19.30;97.20
18337;DHT22;9294;51.106;7.028;2023-11-19T05:15:07;19.30;97.20
18337;DHT22;9294;51.106;7.028;2023-11-19T05:17:34;19.30;97.30
18337;DHT22;9294;51.106;7.028;2023-11-19T05:20:04;19.40;97.30
18337;DHT22;9294;51.106;7.028;2023-11-19T05:22:38;19.30;97.30
18337;DHT22;9294;51.106;7.028;2023-11-19T05:25:06;19.40;97.30
18337;DHT22;9294;51.106;7.028;2023-11-19T05:27:33;19.30;97.30
18337;DHT22;9294;51.106;7.028;2023-11-19T05:30:00;19.30;97.30
18337;DHT22;9294;51.106;7.028;2023-11-19T05:32:27;19.30;97.30
18337;DHT22;9294;51.106;7.028;2023-11-19T05:34:53;19.30;97.40
18337;DHT22;9294;51.106;7.028;2023-11-19T05:37:21;19.30;97.40
18337;DHT22;9294;51.106;7.028;2023-11-19T05:39:48;19.30;97.50
18337;DHT22;9294;51.106;7.028;2023-11-19T05:42:15;19.30;97.40
18337;DHT22;9294;51.106;7.028;2023-11-19T05:44:41;19.30;97.60
18337;DHT22;9294;51.106;7.028;2023-11-19T05:47:08;19.30;97.50
18337;DHT22;9294;51.106;7.028;2023-11-19T05:49:35;19.30;97.60
18337;DHT22;9294;51.106;7.028;2023-11-19T05:52:01;19.30;97.60
18337;DHT22;9294;51.106;7.028;2023-11-19T05:54:34;19.20;97.60
18337;DHT22;9294;51.106;7.028;2023-11-19T05:57:03;19.20;97.60
18337;DHT22;9294;51.106;7.028;2023-11-19T05:59:30;19.20;97.60
18337;DHT22;9294;51.106;7.028;2023-11-19T06:01:58;19.20;97.60
18337;DHT22;9294;51.106;7.028;2023-11-19T06:04:25;19.20;97.60
18337;DHT22;9294;51.106;7.028;2023-11-19T06:06:52;19.20;97.60
18337;DHT22;9294;51.106;7.028;2023-11-19T06:09:20;19.20;97.70
18337;DHT22;9294;51.106;7.028;2023-11-19T06:11:50;19.10;98.00
18337;DHT22;9294;51.106;7.028;2023-11-19T06:14:17;19.10;98.40
18337;DHT22;9294;51.106;7.028;2023-11-19T06:16:44;19.10;98.70
18337;DHT22;9294;51.106;7.028;2023-11-19T06:19:11;19.10;98.80
18337;DHT22;9294;51.106;7.028;2023-11-19T06:21:38;19.20;98.90
18337;DHT22;9294;51.106;7.028;2023-11-19T06:24:05;19.20;98.90
18337;DHT22;9294;51.106;7.028;2023-11-19T06:26:32;19.30;98.80
18337;DHT22;9294;51.106;7.028;2023-11-19T06:29:00;19.30;98.80
18337;DHT22;9294;51.106;7.028;2023-11-19T06:31:27;19.40;98.80
18337;DHT22;9294;51.106;7.028;2023-11-19T06:33:53;19.40;98.80
18337;DHT22;9294;51.106;7.028;2023-11-19T06:36:20;19.50;98.70
18337;DHT22;9294;51.106;7.028;2023-11-19T06:38:47;19.50;98.60
18337;DHT22;9294;51.106;7.028;2023-11-19T06:41:13;19.60;98.50
18337;DHT22;9294;51.106;7.028;2023-11-19T06:43:40;19.70;98.40
18337;DHT22;9294;51.106;7.028;2023-11-19T06:46:15;19.70;98.30
18337;DHT22;9294;51.106;7.028;2023-11-19T06:48:42;19.80;97.90
18337;DHT22;9294;51.106;7.028;2023-11-19T06:51:09;19.90;99.20
18337;DHT22;9294;51.106;7.028;2023-11-19T06:53:36;19.90;99.70
18337;DHT22;9294;51.106;7.028;2023-11-19T06:56:03;20.00;99.30
18337;DHT22;9294;51.106;7.028;2023-11-19T06:58:31;20.10;99.00
18337;DHT22;9294;51.106;7.028;2023-11-19T07:00:57;20.10;98.80
18337;DHT22;9294;51.106;7.028;2023-11-19T07:03:25;20.20;98.50
18337;DHT22;9294;51.106;7.028;2023-11-19T07:05:52;20.20;98.40
18337;DHT22;9294;51.106;7.028;2023-11-19T07:08:20;20.30;98.40
18337;DHT22;9294;51.106;7.028;2023-11-19T07:10:46;20.30;98.50
18337;DHT22;9294;51.106;7.028;2023-11-19T07:13:13;20.30;98.70
18337;DHT22;9294;51.106;7.028;2023-11-19T07:15:40;20.30;98.80
18337;DHT22;9294;51.106;7.028;2023-11-19T07:18:07;20.40;98.80
18337;DHT22;9294;51.106;7.028;2023-11-19T07:20:35;20.40;98.80
18337;DHT22;9294;51.106;7.028;2023-11-19T07:23:03;20.30;98.80
18337;DHT22;9294;51.106;7.028;2023-11-19T07:25:30;20.40;98.60
18337;DHT22;9294;51.106;7.028;2023-11-19T07:27:56;20.40;98.70
18337;DHT22;9294;51.106;7.028;2023-11-19T07:30:23;20.40;98.40
18337;DHT22;9294;51.106;7.028;2023-11-19T07:32:50;20.40;98.40
18337;DHT22;9294;51.106;7.028;2023-11-19T07:35:17;20.40;98.40
18337;DHT22;9294;51.106;7.028;2023-11-19T07:37:45;20.40;98.40
18337;DHT22;9294;51.106;7.028;2023-11-19T07:40:13;20.40;98.40
18337;DHT22;9294;51.106;7.028;2023-11-19T07:42:40;20.40;98.40
18337;DHT22;9294;51.106;7.028;2023-11-19T07:45:07;20.40;98.60
18337;DHT22;9294;51.106;7.028;2023-11-19T07:47:34;20.40;98.70
18337;DHT22;9294;51.106;7.028;2023-11-19T07:50:00;20.40;98.80
18337;DHT22;9294;51.106;7.028;2023-11-19T07:52:27;20.40;98.70
18337;DHT22;9294;51.106;7.028;2023-11-19T07:54:56;20.50;98.40
18337;DHT22;9294;51.106;7.028;2023-11-19T07:57:22;20.50;98.10
18337;DHT22;9294;51.106;7.028;2023-11-19T07:59:50;20.60;98.40
18337;DHT22;9294;51.106;7.028;2023-11-19T08:02:16;20.60;98.20
18337;DHT22;9294;51.106;7.028;2023-11-19T08:04:44;20.60;98.20
18337;DHT22;9294;51.106;7.028;2023-11-19T08:07:11;20.60;98.20
18337;DHT22;9294;51.106;7.028;2023-11-19T08:09:38;20.60;98.20
18337;DHT22;9294;51.106;7.028;2023-11-19T08:12:06;20.50;98.40
18337;DHT22;9294;51.106;7.028;2023-11-19T08:14:34;20.50;98.50
18337;DHT22;9294;51.106;7.028;2023-11-19T08:17:02;20.50;98.30
18337;DHT22;9294;51.106;7.028;2023-11-19T08:19:29;20.50;98.20
18337;DHT22;9294;51.106;7.028;2023-11-19T08:21:56;20.50;98.00
18337;DHT22;9294;51.106;7.028;2023-11-19T08:24:23;20.50;98.20
18337;DHT22;9294;51.106;7.028;2023-11-19T08:26:49;20.50;98.20
18337;DHT22;9294;51.106;7.028;2023-11-19T08:29:17;20.50;98.80
18337;DHT22;9294;51.106;7.028;2023-11-19T08:31:44;20.50;98.80
18337;DHT22;9294;51.106;7.028;2023-11-19T08:34:11;20.60;98.70
18337;DHT22;9294;51.106;7.028;2023-11-19T08:36:38;20.50;98.90
18337;DHT22;9294;51.106;7.028;2023-11-19T08:39:05;20.50;98.90
18337;DHT22;9294;51.106;7.028;2023-11-19T08:41:32;20.50;99.30
18337;DHT22;9294;51.106;7.028;2023-11-19T08:43:59;20.60;99.10
18337;DHT22;9294;51.106;7.028;2023-11-19T08:46:27;20.60;98.90
18337;DHT22;9294;51.106;7.028;2023-11-19T08:48:54;20.60;98.90
18337;DHT22;9294;51.106;7.028;2023-11-19T08:51:22;20.70;98.90
18337;DHT22;9294;51.106;7.028;2023-11-19T08:53:50;20.60;98.80
18337;DHT22;9294;51.106;7.028;2023-11-19T08:56:16;20.60;98.70
18337;DHT22;9294;51.106;7.028;2023-11-19T08:58:43;20.60;98.70
18337;DHT22;9294;51.106;7.028;2023-11-19T09:01:10;20.60;98.70
18337;DHT22;9294;51.106;7.028;2023-11-19T09:03:38;20.60;99.00
18337;DHT22;9294;51.106;7.028;2023-11-19T09:06:05;20.50;99.30
18337;DHT22;9294;51.106;7.028;2023-11-19T09:08:32;20.50;99.40
18337;DHT22;9294;51.106;7.028;2023-11-19T09:10:58;20.50;99.40
18337;DHT22;9294;51.106;7.028;2023-11-19T09:13:25;20.50;99.30
18337;DHT22;9294;51.106;7.028;2023-11-19T09:15:52;20.50;99.40
18337;DHT22;9294;51.106;7.028;2023-11-19T09:18:18;20.50;99.50
18337;DHT22;9294;51.106;7.028;2023-11-19T09:20:47;20.50;99.40
18337;DHT22;9294;51.106;7.028;2023-11-19T09:23:13;20.50;99.30
18337;DHT22;9294;51.106;7.028;2023-11-19T09:25:40;20.60;99.30
18337;DHT22;9294;51.106;7.028;2023-11-19T09:28:07;20.60;99.30
18337;DHT22;9294;51.106;7.028;2023-11-19T09:30:34;20.60;99.40
18337;DHT22;9294;51.106;7.028;2023-11-19T09:33:01;20.60;99.50
18337;DHT22;9294;51.106;7.028;2023-11-19T09:35:28;20.60;99.50
18337;DHT22;9294;51.106;7.028;2023-11-19T09:37:56;20.60;99.70
18337;DHT22;9294;51.106;7.028;2023-11-19T09:40:23;20.60;99.50
18337;DHT22;9294;51.106;7.028;2023-11-19T09:42:50;20.60;99.40
18337;DHT22;9294;51.106;7.028;2023-11-19T09:45:17;20.60;99.30
18337;DHT22;9294;51.106;7.028;2023-11-19T09:47:47;20.60;99.20
18337;DHT22;9294;51.106;7.028;2023-11-19T09:50:19;20.60;99.30
18337;DHT22;9294;51.106;7.028;2023-11-19T09:52:47;20.60;99.00
18337;DHT22;9294;51.106;7.028;2023-11-19T09:55:15;20.70;99.00
18337;DHT22;9294;51.106;7.028;2023-11-19T09:57:42;20.70;98.90
18337;DHT22;9294;51.106;7.028;2023-11-19T10:00:10;20.70;98.70
18337;DHT22;9294;51.106;7.028;2023-11-19T10:02:39;20.80;98.60
18337;DHT22;9294;51.106;7.028;2023-11-19T10:05:07;20.70;98.60
18337;DHT22;9294;51.106;7.028;2023-11-19T10:07:34;20.70;98.40
18337;DHT22;9294;51.106;7.028;2023-11-19T10:10:01;20.70;98.70
18337;DHT22;9294;51.106;7.028;2023-11-19T10:12:31;20.70;98.60
18337;DHT22;9294;51.106;7.028;2023-11-19T10:14:58;20.70;98.60
18337;DHT22;9294;51.106;7.028;2023-11-19T10:17:27;20.70;98.70
18337;DHT22;9294;51.106;7.028;2023-11-19T10:19:55;20.70;98.50
18337;DHT22;9294;51.106;7.028;2023-11-19T10:22:22;20.70;98.80
18337;DHT22;9294;51.106;7.028;2023-11-19T10:24:49;20.70;98.60
18337;DHT22;9294;51.106;7.028;2023-11-19T10:27:17;20.60;98.70
18337;DHT22;9294;51.106;7.028;2023-11-19T10:29:46;20.70;99.60
18337;DHT22;9294;51.106;7.028;2023-11-19T10:32:13;20.60;99.30
18337;DHT22;9294;51.106;7.028;2023-11-19T10:34:40;20.60;99.20
18337;DHT22;9294;51.106;7.028;2023-11-19T10:37:08;20.60;99.30
18337;DHT22;9294;51.106;7.028;2023-11-19T10:39:53;20.60;99.50
18337;DHT22;9294;51.106;7.028;2023-11-19T10:42:21;20.60;99.60
18337;DHT22;9294;51.106;7.028;2023-11-19T10:44:49;20.60;99.90
18337;DHT22;9294;51.106;7.028;2023-11-19T10:47:19;20.60;99.90
18337;DHT22;9294;51.106;7.028;2023-11-19T10:49:46;20.60;99.90
18337;DHT22;9294;51.106;7.028;2023-11-19T10:52:17;20.60;99.90
18337;DHT22;9294;51.106;7.028;2023-11-19T10:54:44;20.60;99.90
18337;DHT22;9294;51.106;7.028;2023-11-19T10:57:19;20.50;99.90
18337;DHT22;9294;51.106;7.028;2023-11-19T10:59:46;20.50;99.90
18337;DHT22;9294;51.106;7.028;2023-11-19T11:02:17;20.50;99.90
18337;DHT22;9294;51.106;7.028;2023-11-19T11:04:47;20.50;99.90
18337;DHT22;9294;51.106;7.028;2023-11-19T11:07:14;20.50;99.90
18337;DHT22;9294;51.106;7.028;2023-11-19T11:09:42;20.40;99.90
18337;DHT22;9294;51.106;7.028;2023-11-19T11:12:09;20.40;99.90
18337;DHT22;9294;51.106;7.028;2023-11-19T11:14:38;20.50;99.90
18337;DHT22;9294;51.106;7.028;2023-11-19T11:17:06;20.40;99.90
18337;DHT22;9294;51.106;7.028;2023-11-19T11:19:36;20.40;99.90
18337;DHT22;9294;51.106;7.028;2023-11-19T11:22:11;20.50;99.90
18337;DHT22;9294;51.106;7.028;2023-11-19T11:30:45;20.50;99.90
18337;DHT22;9294;51.106;7.028;2023-11-19T11:33:26;20.60;99.90
18337;DHT22;9294;51.106;7.028;2023-11-19T11:36:01;20.60;99.90
18337;DHT22;9294;51.106;7.028;2023-11-19T11:38:36;20.70;99.90
18337;DHT22;9294;51.106;7.028;2023-11-19T11:41:17;20.70;99.90
18337;DHT22;9294;51.106;7.028;2023-11-19T11:43:46;20.70;99.80
18337;DHT22;9294;51.106;7.028;2023-11-19T11:49:25;20.70;99.80
18337;DHT22;9294;51.106;7.028;2023-11-19T11:51:59;20.70;99.90
18337;DHT22;9294;51.106;7.028;2023-11-19T11:54:28;20.70;99.90
18337;DHT22;9294;51.106;7.028;2023-11-19T11:57:10;20.60;99.90
18337;DHT22;9294;51.106;7.028;2023-11-19T11:59:47;20.50;99.90
18337;DHT22;9294;51.106;7.028;2023-11-19T12:02:15;20.50;99.90
18337;DHT22;9294;51.106;7.028;2023-11-19T12:04:43;20.50;99.90
18337;DHT22;9294;51.106;7.028;2023-11-19T12:07:13;20.50;99.90
18337;DHT22;9294;51.106;7.028;2023-11-19T12:09:42;20.50;99.90
18337;DHT22;9294;51.106;7.028;2023-11-19T12:12:19;20.50;99.90
18337;DHT22;9294;51.106;7.028;2023-11-19T12:15:06;20.50;99.90
18337;DHT22;9294;51.106;7.028;2023-11-19T12:17:42;20.50;99.90
18337;DHT22;9294;51.106;7.028;2023-11-19T12:20:15;20.50;99.90
18337;DHT22;9294;51.106;7.028;2023-11-19T12:22:43;20.50;99.40
18337;DHT22;9294;51.106;7.028;2023-11-19T12:25:12;20.50;99.90
18337;DHT22;9294;51.106;7.028;2023-11-19T12:27:40;20.50;99.90
18337;DHT22;9294;51.106;7.028;2023-11-19T12:30:08;20.50;99.90
18337;DHT22;9294;51.106;7.028;2023-11-19T12:32:39;20.60;99.90
18337;DHT22;9294;51.106;7.028;2023-11-19T12:35:06;20.60;99.90
18337;DHT22;9294;51.106;7.028;2023-11-19T12:37:39;20.60;99.90
18337;DHT22;9294;51.106;7.028;2023-11-19T12:40:15;20.60;99.90
18337;DHT22;9294;51.106;7.028;2023-11-19T12:42:42;20.60;99.90
18337;DHT22;9294;51.106;7.028;2023-11-19T12:45:09;20.60;99.90
18337;DHT22;9294;51.106;7.028;2023-11-19T12:47:37;20.50;99.90
18337;DHT22;9294;51.106;7.028;2023-11-19T12:50:05;20.50;99.10
18337;DHT22;9294;51.106;7.028;2023-11-19T12:52:32;20.50;99.60
18337;DHT22;9294;51.106;7.028;2023-11-19T12:54:59;20.50;99.90
18337;DHT22;9294;51.106;7.028;2023-11-19T12:57:38;20.50;99.90
18337;DHT22;9294;51.106;7.028;2023-11-19T13:00:06;20.40;99.90
18337;DHT22;9294;51.106;7.028;2023-11-19T13:02:45;20.40;99.90
18337;DHT22;9294;51.106;7.028;2023-11-19T13:05:23;20.50;99.90
18337;DHT22;9294;51.106;7.028;2023-11-19T13:07:51;20.50;99.90
18337;DHT22;9294;51.106;7.028;2023-11-19T13:10:18;20.50;99.90
18337;DHT22;9294;51.106;7.028;2023-11-19T13:13:02;20.50;99.90
18337;DHT22;9294;51.106;7.028;2023-11-19T13:15:29;20.50;99.90
18337;DHT22;9294;51.106;7.028;2023-11-19T13:17:56;20.50;99.90
18337;DHT22;9294;51.106;7.028;2023-11-19T13:20:22;20.50;99.90
18337;DHT22;9294;51.106;7.028;2023-11-19T13:22:56;20.60;99.90
18337;DHT22;9294;51.106;7.028;2023-11-19T13:25:23;20.60;99.90
18337;DHT22;9294;51.106;7.028;2023-11-19T13:27:50;20.70;99.90
18337;DHT22;9294;51.106;7.028;2023-11-19T13:30:18;20.70;99.90
18337;DHT22;9294;51.106;7.028;2023-11-19T13:32:45;20.70;99.90
18337;DHT22;9294;51.106;7.028;2023-11-19T13:35:12;20.70;99.90
18337;DHT22;9294;51.106;7.028;2023-11-19T13:37:38;20.80;99.90
18337;DHT22;9294;51.106;7.028;2023-11-19T13:40:07;20.80;99.90
18337;DHT22;9294;51.106;7.028;2023-11-19T13:42:35;20.70;99.90
18337;DHT22;9294;51.106;7.028;2023-11-19T13:45:02;20.80;99.90
18337;DHT22;9294;51.106;7.028;2023-11-19T13:47:31;20.80;99.90
18337;DHT22;9294;51.106;7.028;2023-11-19T13:49:57;20.80;99.90
18337;DHT22;9294;51.106;7.028;2023-11-19T13:52:24;20.80;99.90
18337;DHT22;9294;51.106;7.028;2023-11-19T13:54:51;20.80;99.90
18337;DHT22;9294;51.106;7.028;2023-11-19T13:57:17;20.70;99.90
18337;DHT22;9294;51.106;7.028;2023-11-19T13:59:44;20.80;99.90
18337;DHT22;9294;51.106;7.028;2023-11-19T14:02:11;20.70;99.90
18337;DHT22;9294;51.106;7.028;2023-11-19T14:04:39;20.70;99.90
18337;DHT22;9294;51.106;7.028;2023-11-19T14:07:06;20.70;99.90
18337;DHT22;9294;51.106;7.028;2023-11-19T14:09:33;20.70;99.90
18337;DHT22;9294;51.106;7.028;2023-11-19T14:12:00;20.70;99.90
18337;DHT22;9294;51.106;7.028;2023-11-19T14:14:26;20.70;99.90
18337;DHT22;9294;51.106;7.028;2023-11-19T14:16:53;20.70;99.90
18337;DHT22;9294;51.106;7.028;2023-11-19T14:19:20;20.70;99.90
18337;DHT22;9294;51.106;7.028;2023-11-19T14:21:48;20.70;99.90
18337;DHT22;9294;51.106;7.028;2023-11-19T14:24:15;20.70;99.90
18337;DHT22;9294;51.106;7.028;2023-11-19T14:26:41;20.70;99.90
18337;DHT22;9294;51.106;7.028;2023-11-19T14:29:08;20.70;99.90
18337;DHT22;9294;51.106;7.028;2023-11-19T14:31:35;20.70;99.90
18337;DHT22;9294;51.106;7.028;2023-11-19T14:34:02;20.70;99.90
18337;DHT22;9294;51.106;7.028;2023-11-19T14:36:28;20.70;99.90
18337;DHT22;9294;51.106;7.028;2023-11-19T14:38:56;20.70;99.90
18337;DHT22;9294;51.106;7.028;2023-11-19T14:41:24;20.70;99.90
18337;DHT22;9294;51.106;7.028;2023-11-19T14:43:51;20.70;99.90
18337;DHT22;9294;51.106;7.028;2023-11-19T14:46:17;20.70;99.90
18337;DHT22;9294;51.106;7.028;2023-11-19T14:48:44;20.70;99.90
18337;DHT22;9294;51.106;7.028;2023-11-19T14:51:11;20.80;99.90
18337;DHT22;9294;51.106;7.028;2023-11-19T14:53:38;20.80;99.90
18337;DHT22;9294;51.106;7.028;2023-11-19T14:56:10;20.80;99.90
18337;DHT22;9294;51.106;7.028;2023-11-19T14:58:38;20.80;99.90
18337;DHT22;9294;51.106;7.028;2023-11-19T15:01:05;20.80;99.90
18337;DHT22;9294;51.106;7.028;2023-11-19T15:03:32;20.80;99.90
18337;DHT22;9294;51.106;7.028;2023-11-19T15:05:59;20.80;99.90
18337;DHT22;9294;51.106;7.028;2023-11-19T15:08:26;20.90;99.90
18337;DHT22;9294;51.106;7.028;2023-11-19T15:10:52;20.90;99.90
18337;DHT22;9294;51.106;7.028;2023-11-19T15:13:20;20.80;99.90
18337;DHT22;9294;51.106;7.028;2023-11-19T15:15:47;20.80;99.90
18337;DHT22;9294;51.106;7.028;2023-11-19T15:18:14;20.80;99.90
18337;DHT22;9294;51.106;7.028;2023-11-19T15:20:41;20.80;99.90
18337;DHT22;9294;51.106;7.028;2023-11-19T15:23:08;20.80;99.90
18337;DHT22;9294;51.106;7.028;2023-11-19T15:25:35;20.80;99.90
18337;DHT22;9294;51.106;7.028;2023-11-19T15:28:02;20.90;99.90
18337;DHT22;9294;51.106;7.028;2023-11-19T15:30:30;20.90;99.90
18337;DHT22;9294;51.106;7.028;2023-11-19T15:32:57;20.90;99.90
18337;DHT22;9294;51.106;7.028;2023-11-19T15:35:23;20.80;99.90
18337;DHT22;9294;51.106;7.028;2023-11-19T15:37:50;20.90;99.90
18337;DHT22;9294;51.106;7.028;2023-11-19T15:40:17;20.80;99.90
18337;DHT22;9294;51.106;7.028;2023-11-19T15:42:45;20.90;99.90
18337;DHT22;9294;51.106;7.028;2023-11-19T15:45:12;20.80;99.90
18337;DHT22;9294;51.106;7.028;2023-11-19T15:47:41;20.80;99.90
18337;DHT22;9294;51.106;7.028;2023-11-19T15:50:08;20.80;99.90
18337;DHT22;9294;51.106;7.028;2023-11-19T15:52:36;20.80;99.90
18337;DHT22;9294;51.106;7.028;2023-11-19T15:55:04;20.80;99.90
18337;DHT22;9294;51.106;7.028;2023-11-19T15:57:30;20.80;99.90
18337;DHT22;9294;51.106;7.028;2023-11-19T15:59:57;20.70;99.90